Aérodrome :
LOGIN :

S'inscrire | Disclaimer

   EN    FR    IT 

 










Légende :    VFR   VFR Marginal   IFR   IFR Intensif   IFR Très Intensif
Visi : 
Plafond : 
>= 8 km
>= 3000ft
5 à 8 km
1000 à 3000 ft
1500m à 5 km
500 à 1000 ft
800 à 1500m
200 à 500 ft
< 800m
< 200 ft
Symboles :   Orages  Brouillard  Fortes neiges  Fortes précipitations  Vent > 20 kt
SIGMETs :   Divers  Orages  Givrage  Turbulence  Onde Orograph.  Cendres Volcan.







- Altitude de l'aérodrome : 870 ft
- Code IATA : ETZ
- Voir les cartes d'approche


LFJL - Metz Nancy Lorraine

DERNIER METAR :
  • 170730Z AUTO 31004KT 240V350 CAVOK 21/13 Q1016 NOSIG

METARs EXPIRÉS :
  • 170700Z AUTO 31003KT 260V360 CAVOK 20/13 Q1016 NOSIG
  • 170630Z AUTO 28005KT CAVOK 20/13 Q1015 NOSIG
  • 170600Z AUTO 26005KT CAVOK 19/13 Q1015 NOSIG
  • 170530Z AUTO 23006KT CAVOK 18/13 Q1015 NOSIG
  • 170500Z AUTO 22005KT CAVOK 17/13 Q1015 NOSIG

TAF TAF LFJL
Valide du 17 à 06h jusqu'au 18 à 06h UTC


170500Z 1706/1806 24005KT CAVOK
TEMPO 1713/1717 29015G25KT FEW070TCU
Pas de NOTAMs connus pour ce terrain.



MET'MAP, la Météo Aéronautique d'un coup d'oeil ! - Copyright ORBIFLY Décembre 2007 - Disclaimer

ORBIFLY MET'MAP TEAM :

Programmation & Développement : Alexandra Zaïnal
Conception & Développement : Baudouin d'Aumeries
Co-Programmation & Développement : Marc-Olivier Méhu
Soutien technique & logistique : Manuel Goepfert

Contact : metmap@orbifly.com




SOURCES & CREDITS :

   NOAA